sensor_id;sensor_type;location;lat;lon;timestamp;pressure;altitude;pressure_sealevel;temperature;humidity
70921;BME280;58572;48.110;19.838;2023-03-25T00:01:04;96820.16;;;13.80;63.81
70921;BME280;58572;48.110;19.838;2023-03-25T00:03:35;96824.44;;;13.90;63.30
70921;BME280;58572;48.110;19.838;2023-03-25T00:06:05;96822.03;;;13.88;63.31
70921;BME280;58572;48.110;19.838;2023-03-25T00:08:32;96818.28;;;13.72;63.86
70921;BME280;58572;48.110;19.838;2023-03-25T00:11:01;96819.75;;;14.82;58.06
70921;BME280;58572;48.110;19.838;2023-03-25T00:13:29;96814.69;;;13.80;63.67
70921;BME280;58572;48.110;19.838;2023-03-25T00:15:57;96806.19;;;14.02;62.53
70921;BME280;58572;48.110;19.838;2023-03-25T00:18:28;96791.78;;;13.93;62.97
70921;BME280;58572;48.110;19.838;2023-03-25T00:21:00;96776.31;;;13.97;62.92
70921;BME280;58572;48.110;19.838;2023-03-25T00:23:28;96680.69;;;13.26;62.13
70921;BME280;58572;48.110;19.838;2023-03-25T00:25:56;96774.38;;;13.77;62.57
70921;BME280;58572;48.110;19.838;2023-03-25T00:28:26;96772.69;;;13.64;63.34
70921;BME280;58572;48.110;19.838;2023-03-25T00:30:58;96761.09;;;13.67;63.03
70921;BME280;58572;48.110;19.838;2023-03-25T00:33:26;96770.13;;;13.88;62.73
70921;BME280;58572;48.110;19.838;2023-03-25T00:35:53;96769.66;;;14.49;60.23
70921;BME280;58572;48.110;19.838;2023-03-25T00:38:26;96741.25;;;13.79;62.60
70921;BME280;58572;48.110;19.838;2023-03-25T00:40:58;96756.50;;;13.59;63.45
70921;BME280;58572;48.110;19.838;2023-03-25T00:43:28;96766.47;;;14.26;61.36
70921;BME280;58572;48.110;19.838;2023-03-25T00:45:55;96755.41;;;14.64;58.23
70921;BME280;58572;48.110;19.838;2023-03-25T00:48:22;96753.75;;;14.96;57.62
70921;BME280;58572;48.110;19.838;2023-03-25T00:50:51;96760.06;;;14.63;58.38
70921;BME280;58572;48.110;19.838;2023-03-25T00:53:18;96751.41;;;14.61;58.00
70921;BME280;58572;48.110;19.838;2023-03-25T00:55:47;96761.34;;;14.24;60.01
70921;BME280;58572;48.110;19.838;2023-03-25T00:58:14;96773.47;;;14.35;59.99
70921;BME280;58572;48.110;19.838;2023-03-25T01:00:41;96783.66;;;14.05;60.30
70921;BME280;58572;48.110;19.838;2023-03-25T01:03:08;96775.34;;;14.23;58.62
70921;BME280;58572;48.110;19.838;2023-03-25T01:05:35;96776.47;;;14.22;60.07
70921;BME280;58572;48.110;19.838;2023-03-25T01:08:06;96774.06;;;14.62;57.79
70921;BME280;58572;48.110;19.838;2023-03-25T01:10:34;96771.88;;;14.88;56.56
70921;BME280;58572;48.110;19.838;2023-03-25T01:13:02;96779.25;;;14.76;57.36
70921;BME280;58572;48.110;19.838;2023-03-25T01:15:29;96783.94;;;14.13;59.95
70921;BME280;58572;48.110;19.838;2023-03-25T01:17:56;96774.88;;;14.62;57.78
70921;BME280;58572;48.110;19.838;2023-03-25T01:20:23;96789.00;;;14.23;60.70
70921;BME280;58572;48.110;19.838;2023-03-25T01:22:51;96781.13;;;14.21;60.17
70921;BME280;58572;48.110;19.838;2023-03-25T01:25:18;96775.25;;;14.31;58.35
70921;BME280;58572;48.110;19.838;2023-03-25T01:27:45;96775.28;;;14.52;58.00
70921;BME280;58572;48.110;19.838;2023-03-25T01:30:14;96777.31;;;14.55;58.12
70921;BME280;58572;48.110;19.838;2023-03-25T01:32:41;96771.06;;;14.88;56.56
70921;BME280;58572;48.110;19.838;2023-03-25T01:35:08;96776.19;;;14.77;58.31
70921;BME280;58572;48.110;19.838;2023-03-25T01:37:37;96780.31;;;14.42;59.68
70921;BME280;58572;48.110;19.838;2023-03-25T01:40:05;96772.34;;;14.57;57.98
70921;BME280;58572;48.110;19.838;2023-03-25T01:42:35;96764.19;;;14.49;57.79
70921;BME280;58572;48.110;19.838;2023-03-25T01:45:24;96770.50;;;14.41;58.25
70921;BME280;58572;48.110;19.838;2023-03-25T01:47:57;96766.25;;;14.31;58.75
70921;BME280;58572;48.110;19.838;2023-03-25T01:50:26;96754.16;;;14.74;57.09
70921;BME280;58572;48.110;19.838;2023-03-25T01:52:55;96756.59;;;14.13;59.26
70921;BME280;58572;48.110;19.838;2023-03-25T01:55:23;96751.53;;;14.65;57.42
70921;BME280;58572;48.110;19.838;2023-03-25T01:57:53;96739.25;;;14.83;56.37
70921;BME280;58572;48.110;19.838;2023-03-25T02:00:25;96736.72;;;14.45;60.64
70921;BME280;58572;48.110;19.838;2023-03-25T02:02:54;96730.91;;;14.47;57.86
70921;BME280;58572;48.110;19.838;2023-03-25T02:05:31;96737.66;;;14.07;59.01
70921;BME280;58572;48.110;19.838;2023-03-25T02:08:01;96731.44;;;14.40;57.75
70921;BME280;58572;48.110;19.838;2023-03-25T02:10:30;96744.88;;;14.12;61.78
70921;BME280;58572;48.110;19.838;2023-03-25T02:12:58;96743.56;;;13.38;62.75
70921;BME280;58572;48.110;19.838;2023-03-25T02:15:31;96739.84;;;14.35;58.63
70921;BME280;58572;48.110;19.838;2023-03-25T02:18:19;96725.50;;;14.38;58.43
70921;BME280;58572;48.110;19.838;2023-03-25T02:27:14;96746.00;;;13.31;64.72
70921;BME280;58572;48.110;19.838;2023-03-25T02:30:07;96749.72;;;13.65;63.74
70921;BME280;58572;48.110;19.838;2023-03-25T02:33:02;96739.66;;;13.10;66.12
70921;BME280;58572;48.110;19.838;2023-03-25T02:35:46;96734.88;;;13.95;61.25
70921;BME280;58572;48.110;19.838;2023-03-25T02:38:29;96689.41;;;12.82;66.51
70921;BME280;58572;48.110;19.838;2023-03-25T02:41:05;96744.00;;;13.99;62.47
70921;BME280;58572;48.110;19.838;2023-03-25T02:43:39;96750.59;;;13.98;61.32
70921;BME280;58572;48.110;19.838;2023-03-25T02:46:11;96746.59;;;14.17;61.03
70921;BME280;58572;48.110;19.838;2023-03-25T02:48:46;96753.31;;;13.78;64.81
70921;BME280;58572;48.110;19.838;2023-03-25T02:51:21;96744.59;;;14.26;62.02
70921;BME280;58572;48.110;19.838;2023-03-25T02:53:53;96605.00;;;13.35;60.48
70921;BME280;58572;48.110;19.838;2023-03-25T02:56:24;96754.31;;;13.73;63.79
70921;BME280;58572;48.110;19.838;2023-03-25T02:58:55;96765.41;;;13.38;65.76
70921;BME280;58572;48.110;19.838;2023-03-25T03:01:23;96762.56;;;13.26;67.74
70921;BME280;58572;48.110;19.838;2023-03-25T03:03:51;96760.53;;;14.03;62.00
70921;BME280;58572;48.110;19.838;2023-03-25T03:06:19;96759.84;;;14.27;63.20
70921;BME280;58572;48.110;19.838;2023-03-25T03:09:05;96762.78;;;13.51;65.58
70921;BME280;58572;48.110;19.838;2023-03-25T03:11:41;96761.47;;;14.28;60.95
70921;BME280;58572;48.110;19.838;2023-03-25T03:14:29;96758.72;;;13.86;63.42
70921;BME280;58572;48.110;19.838;2023-03-25T03:17:06;96484.56;;;12.54;61.86
70921;BME280;58572;48.110;19.838;2023-03-25T03:19:39;96721.84;;;14.34;61.66
70921;BME280;58572;48.110;19.838;2023-03-25T03:22:22;96734.97;;;14.41;60.23
70921;BME280;58572;48.110;19.838;2023-03-25T03:25:01;96746.50;;;14.67;59.86
70921;BME280;58572;48.110;19.838;2023-03-25T03:27:33;96732.78;;;14.34;59.79
70921;BME280;58572;48.110;19.838;2023-03-25T03:30:08;96742.44;;;14.52;59.86
70921;BME280;58572;48.110;19.838;2023-03-25T03:32:40;96734.84;;;14.37;62.16
70921;BME280;58572;48.110;19.838;2023-03-25T03:35:16;96744.94;;;14.24;61.24
70921;BME280;58572;48.110;19.838;2023-03-25T03:37:48;96755.00;;;14.12;61.81
70921;BME280;58572;48.110;19.838;2023-03-25T03:40:19;96759.63;;;12.93;71.06
70921;BME280;58572;48.110;19.838;2023-03-25T03:42:51;96753.13;;;14.03;62.43
70921;BME280;58572;48.110;19.838;2023-03-25T03:45:22;96750.88;;;14.05;62.78
70921;BME280;58572;48.110;19.838;2023-03-25T03:47:53;96759.19;;;13.88;63.55
70921;BME280;58572;48.110;19.838;2023-03-25T03:50:25;96757.28;;;14.10;62.20
70921;BME280;58572;48.110;19.838;2023-03-25T03:52:59;96770.31;;;14.25;61.69
70921;BME280;58572;48.110;19.838;2023-03-25T03:55:34;96758.19;;;13.93;62.64
70921;BME280;58572;48.110;19.838;2023-03-25T03:58:05;96764.88;;;14.04;62.12
70921;BME280;58572;48.110;19.838;2023-03-25T04:00:38;96755.00;;;14.12;62.34
70921;BME280;58572;48.110;19.838;2023-03-25T04:03:13;96763.94;;;14.21;62.43
70921;BME280;58572;48.110;19.838;2023-03-25T04:05:44;96769.94;;;13.93;62.88
70921;BME280;58572;48.110;19.838;2023-03-25T04:08:17;96768.19;;;14.10;61.89
70921;BME280;58572;48.110;19.838;2023-03-25T04:10:52;96739.13;;;13.84;62.16
70921;BME280;58572;48.110;19.838;2023-03-25T04:13:25;96769.94;;;13.93;63.47
70921;BME280;58572;48.110;19.838;2023-03-25T04:15:56;96768.84;;;13.86;64.37
70921;BME280;58572;48.110;19.838;2023-03-25T04:18:24;96779.72;;;13.94;62.92
70921;BME280;58572;48.110;19.838;2023-03-25T04:20:53;96777.31;;;13.93;62.90
70921;BME280;58572;48.110;19.838;2023-03-25T04:23:20;96795.25;;;12.88;70.28
70921;BME280;58572;48.110;19.838;2023-03-25T04:25:47;96787.56;;;13.75;64.33
70921;BME280;58572;48.110;19.838;2023-03-25T04:28:19;96791.88;;;14.05;63.36
70921;BME280;58572;48.110;19.838;2023-03-25T04:30:46;96770.00;;;13.17;72.33
70921;BME280;58572;48.110;19.838;2023-03-25T04:33:14;96794.97;;;12.81;74.39
70921;BME280;58572;48.110;19.838;2023-03-25T04:35:42;96789.97;;;12.92;69.84
70921;BME280;58572;48.110;19.838;2023-03-25T04:38:09;96791.06;;;13.55;65.90
70921;BME280;58572;48.110;19.838;2023-03-25T04:40:36;96759.69;;;13.23;66.49
70921;BME280;58572;48.110;19.838;2023-03-25T04:43:05;96802.66;;;13.43;67.22
70921;BME280;58572;48.110;19.838;2023-03-25T04:45:33;96808.22;;;13.00;74.17
70921;BME280;58572;48.110;19.838;2023-03-25T04:48:01;96811.78;;;13.56;65.92
70921;BME280;58572;48.110;19.838;2023-03-25T04:50:31;96819.41;;;13.71;65.93
70921;BME280;58572;48.110;19.838;2023-03-25T04:52:58;96832.00;;;12.91;73.78
70921;BME280;58572;48.110;19.838;2023-03-25T04:55:25;96817.16;;;13.26;69.10
70921;BME280;58572;48.110;19.838;2023-03-25T04:57:53;96816.56;;;13.59;70.11
70921;BME280;58572;48.110;19.838;2023-03-25T05:00:21;96810.06;;;13.72;67.06
70921;BME280;58572;48.110;19.838;2023-03-25T05:02:52;96815.16;;;13.82;66.17
70921;BME280;58572;48.110;19.838;2023-03-25T05:05:21;96805.22;;;13.78;65.79
70921;BME280;58572;48.110;19.838;2023-03-25T05:07:50;96813.66;;;13.93;65.33
70921;BME280;58572;48.110;19.838;2023-03-25T05:10:18;96819.59;;;13.10;69.54
70921;BME280;58572;48.110;19.838;2023-03-25T05:12:46;96776.28;;;13.47;66.03
70921;BME280;58572;48.110;19.838;2023-03-25T05:15:13;96832.25;;;13.70;66.16
70921;BME280;58572;48.110;19.838;2023-03-25T05:17:41;96824.28;;;13.86;71.17
70921;BME280;58572;48.110;19.838;2023-03-25T05:20:11;96824.97;;;13.83;65.69
70921;BME280;58572;48.110;19.838;2023-03-25T05:22:39;96818.50;;;13.50;67.17
70921;BME280;58572;48.110;19.838;2023-03-25T05:25:08;96838.06;;;13.22;70.01
70921;BME280;58572;48.110;19.838;2023-03-25T05:27:36;96833.94;;;13.46;68.10
70921;BME280;58572;48.110;19.838;2023-03-25T05:30:05;96843.59;;;13.43;68.99
70921;BME280;58572;48.110;19.838;2023-03-25T05:32:33;96829.84;;;13.31;73.18
70921;BME280;58572;48.110;19.838;2023-03-25T05:35:01;96825.47;;;13.38;68.73
70921;BME280;58572;48.110;19.838;2023-03-25T05:37:29;96832.97;;;13.59;69.27
70921;BME280;58572;48.110;19.838;2023-03-25T05:39:57;96833.47;;;13.43;70.24
70921;BME280;58572;48.110;19.838;2023-03-25T05:42:24;96832.63;;;13.52;70.99
70921;BME280;58572;48.110;19.838;2023-03-25T05:44:52;96838.66;;;13.36;70.59
70921;BME280;58572;48.110;19.838;2023-03-25T05:47:21;96825.19;;;13.31;69.18
70921;BME280;58572;48.110;19.838;2023-03-25T05:49:48;96834.09;;;13.58;69.02
70921;BME280;58572;48.110;19.838;2023-03-25T05:52:17;96826.38;;;13.60;67.77
70921;BME280;58572;48.110;19.838;2023-03-25T05:54:46;96840.22;;;13.55;69.10
70921;BME280;58572;48.110;19.838;2023-03-25T05:57:16;96842.91;;;13.63;67.25
70921;BME280;58572;48.110;19.838;2023-03-25T05:59:43;96837.97;;;12.75;73.55
70921;BME280;58572;48.110;19.838;2023-03-25T06:02:12;96839.41;;;13.46;72.26
70921;BME280;58572;48.110;19.838;2023-03-25T06:04:39;96840.22;;;13.84;66.33
70921;BME280;58572;48.110;19.838;2023-03-25T06:07:07;96836.91;;;13.99;65.78
70921;BME280;58572;48.110;19.838;2023-03-25T06:09:39;96837.00;;;13.53;67.13
70921;BME280;58572;48.110;19.838;2023-03-25T06:12:12;96841.00;;;12.83;71.09
70921;BME280;58572;48.110;19.838;2023-03-25T06:14:39;96838.44;;;13.50;67.19
70921;BME280;58572;48.110;19.838;2023-03-25T06:17:10;96837.69;;;13.32;68.34
70921;BME280;58572;48.110;19.838;2023-03-25T06:19:37;96851.22;;;13.03;71.84
70921;BME280;58572;48.110;19.838;2023-03-25T06:22:05;96841.16;;;13.50;68.39
70921;BME280;58572;48.110;19.838;2023-03-25T06:24:34;96846.72;;;13.07;70.03
70921;BME280;58572;48.110;19.838;2023-03-25T06:27:01;96855.00;;;13.45;69.04
70921;BME280;58572;48.110;19.838;2023-03-25T06:29:30;96857.31;;;13.72;67.25
70921;BME280;58572;48.110;19.838;2023-03-25T06:31:57;96857.75;;;13.83;66.59
70921;BME280;58572;48.110;19.838;2023-03-25T06:34:24;96857.78;;;13.28;69.11
70921;BME280;58572;48.110;19.838;2023-03-25T06:36:51;96735.22;;;12.97;67.40
70921;BME280;58572;48.110;19.838;2023-03-25T06:39:19;96858.41;;;13.80;66.87
70921;BME280;58572;48.110;19.838;2023-03-25T06:41:46;96861.75;;;13.86;65.92
70921;BME280;58572;48.110;19.838;2023-03-25T06:44:13;96856.47;;;13.81;66.83
70921;BME280;58572;48.110;19.838;2023-03-25T06:46:42;96858.41;;;13.80;67.33
70921;BME280;58572;48.110;19.838;2023-03-25T06:49:09;96858.69;;;13.87;65.85
70921;BME280;58572;48.110;19.838;2023-03-25T06:51:37;96859.06;;;13.77;67.11
70921;BME280;58572;48.110;19.838;2023-03-25T06:54:04;96857.69;;;13.92;66.42
70921;BME280;58572;48.110;19.838;2023-03-25T06:56:31;96857.03;;;13.65;67.01
70921;BME280;58572;48.110;19.838;2023-03-25T06:58:58;96874.00;;;13.24;71.52
70921;BME280;58572;48.110;19.838;2023-03-25T07:01:25;96870.06;;;13.60;67.34
70921;BME280;58572;48.110;19.838;2023-03-25T07:03:54;96840.84;;;13.52;66.59
70921;BME280;58572;48.110;19.838;2023-03-25T07:06:22;96882.38;;;13.02;69.16
70921;BME280;58572;48.110;19.838;2023-03-25T07:08:50;96878.53;;;13.03;70.84
70921;BME280;58572;48.110;19.838;2023-03-25T07:11:18;96881.38;;;13.15;69.23
70921;BME280;58572;48.110;19.838;2023-03-25T07:13:49;96888.47;;;12.99;69.48
70921;BME280;58572;48.110;19.838;2023-03-25T07:16:18;96878.41;;;12.65;74.72
70921;BME280;58572;48.110;19.838;2023-03-25T07:18:45;96878.81;;;13.10;72.71
70921;BME280;58572;48.110;19.838;2023-03-25T07:21:13;96872.91;;;12.91;73.65
70921;BME280;58572;48.110;19.838;2023-03-25T07:23:41;96877.66;;;13.37;69.00
70921;BME280;58572;48.110;19.838;2023-03-25T07:26:08;96877.66;;;11.99;74.90
70921;BME280;58572;48.110;19.838;2023-03-25T07:28:35;96879.13;;;11.65;77.39
70921;BME280;58572;48.110;19.838;2023-03-25T07:31:05;96874.38;;;12.88;73.57
70921;BME280;58572;48.110;19.838;2023-03-25T07:33:32;96871.56;;;13.40;68.95
70921;BME280;58572;48.110;19.838;2023-03-25T07:35:59;96872.41;;;13.23;69.28
70921;BME280;58572;48.110;19.838;2023-03-25T07:38:28;96745.28;;;12.58;68.06
70921;BME280;58572;48.110;19.838;2023-03-25T07:40:55;96879.88;;;13.52;69.90
70921;BME280;58572;48.110;19.838;2023-03-25T07:43:22;96873.88;;;12.95;71.32
70921;BME280;58572;48.110;19.838;2023-03-25T07:45:49;96874.09;;;13.54;68.25
70921;BME280;58572;48.110;19.838;2023-03-25T07:48:16;96874.13;;;13.83;66.53
70921;BME280;58572;48.110;19.838;2023-03-25T07:50:44;96873.31;;;14.12;65.08
70921;BME280;58572;48.110;19.838;2023-03-25T07:53:13;96871.88;;;13.85;67.30
70921;BME280;58572;48.110;19.838;2023-03-25T07:55:42;96873.31;;;13.45;68.58
70921;BME280;58572;48.110;19.838;2023-03-25T07:58:10;96880.84;;;13.56;68.19
70921;BME280;58572;48.110;19.838;2023-03-25T08:00:37;96873.09;;;13.96;68.19
70921;BME280;58572;48.110;19.838;2023-03-25T08:03:04;96874.69;;;13.97;68.49
70921;BME280;58572;48.110;19.838;2023-03-25T08:05:31;96793.16;;;12.94;68.15
70921;BME280;58572;48.110;19.838;2023-03-25T08:07:58;96885.41;;;14.11;65.37
70921;BME280;58572;48.110;19.838;2023-03-25T08:10:25;96878.94;;;13.86;66.77
70921;BME280;58572;48.110;19.838;2023-03-25T08:12:55;96882.59;;;14.20;66.92
70921;BME280;58572;48.110;19.838;2023-03-25T08:15:22;96895.50;;;13.81;68.75
70921;BME280;58572;48.110;19.838;2023-03-25T08:17:50;96822.50;;;13.61;67.61
70921;BME280;58572;48.110;19.838;2023-03-25T08:20:18;96878.00;;;14.12;66.75
70921;BME280;58572;48.110;19.838;2023-03-25T08:22:45;96882.19;;;14.09;68.89
70921;BME280;58572;48.110;19.838;2023-03-25T08:25:12;96819.59;;;13.66;66.82
70921;BME280;58572;48.110;19.838;2023-03-25T08:27:39;96880.97;;;13.98;67.70
70921;BME280;58572;48.110;19.838;2023-03-25T08:30:09;96883.78;;;13.34;69.79
70921;BME280;58572;48.110;19.838;2023-03-25T08:32:37;96876.44;;;14.02;68.42
70921;BME280;58572;48.110;19.838;2023-03-25T08:35:05;96872.00;;;14.68;65.45
70921;BME280;58572;48.110;19.838;2023-03-25T08:37:32;96855.06;;;13.74;71.44
70921;BME280;58572;48.110;19.838;2023-03-25T08:40:00;96884.34;;;14.24;66.89
70921;BME280;58572;48.110;19.838;2023-03-25T08:42:31;96880.06;;;14.44;66.79
70921;BME280;58572;48.110;19.838;2023-03-25T08:44:58;96883.66;;;14.06;67.47
70921;BME280;58572;48.110;19.838;2023-03-25T08:47:26;96755.63;;;12.91;68.69
70921;BME280;58572;48.110;19.838;2023-03-25T08:49:53;96879.06;;;14.49;66.32
70921;BME280;58572;48.110;19.838;2023-03-25T08:52:20;96880.72;;;14.12;67.87
70921;BME280;58572;48.110;19.838;2023-03-25T08:54:48;96878.53;;;14.55;67.72
70921;BME280;58572;48.110;19.838;2023-03-25T08:57:15;96828.19;;;15.34;64.22
70921;BME280;58572;48.110;19.838;2023-03-25T08:59:42;96861.59;;;16.34;65.58
70921;BME280;58572;48.110;19.838;2023-03-25T09:02:11;96861.84;;;16.05;62.89
70921;BME280;58572;48.110;19.838;2023-03-25T09:04:39;96865.31;;;15.44;65.45
70921;BME280;58572;48.110;19.838;2023-03-25T09:07:06;96864.38;;;15.40;64.31
70921;BME280;58572;48.110;19.838;2023-03-25T09:09:35;96863.22;;;15.74;62.59
70921;BME280;58572;48.110;19.838;2023-03-25T09:12:05;96864.72;;;15.39;63.48
70921;BME280;58572;48.110;19.838;2023-03-25T09:14:32;96860.38;;;14.92;64.34
70921;BME280;58572;48.110;19.838;2023-03-25T09:16:59;96840.91;;;16.89;59.91
70921;BME280;58572;48.110;19.838;2023-03-25T09:19:27;96843.28;;;17.18;59.19
70921;BME280;58572;48.110;19.838;2023-03-25T09:21:55;96849.00;;;16.45;60.05
70921;BME280;58572;48.110;19.838;2023-03-25T09:24:22;96851.00;;;16.60;60.60
70921;BME280;58572;48.110;19.838;2023-03-25T09:26:50;96847.56;;;16.23;60.36
70921;BME280;58572;48.110;19.838;2023-03-25T09:29:17;96846.78;;;16.75;60.11
70921;BME280;58572;48.110;19.838;2023-03-25T09:31:45;96805.56;;;16.47;59.67
70921;BME280;58572;48.110;19.838;2023-03-25T09:34:11;96839.59;;;17.42;59.65
70921;BME280;58572;48.110;19.838;2023-03-25T09:36:38;96842.13;;;17.95;58.60
70921;BME280;58572;48.110;19.838;2023-03-25T09:39:08;96830.06;;;18.54;55.09
70921;BME280;58572;48.110;19.838;2023-03-25T09:42:00;96796.41;;;16.03;60.42
70921;BME280;58572;48.110;19.838;2023-03-25T09:44:32;96829.75;;;16.57;58.54
70921;BME280;58572;48.110;19.838;2023-03-25T09:47:02;96832.31;;;17.50;56.74
70921;BME280;58572;48.110;19.838;2023-03-25T09:49:36;96850.16;;;16.32;59.45
70921;BME280;58572;48.110;19.838;2023-03-25T09:52:06;96819.56;;;18.05;56.61
70921;BME280;58572;48.110;19.838;2023-03-25T09:54:44;96826.47;;;19.27;52.94
70921;BME280;58572;48.110;19.838;2023-03-25T09:57:16;96755.50;;;16.38;55.58
70921;BME280;58572;48.110;19.838;2023-03-25T09:59:49;96824.53;;;18.69;52.08
70921;BME280;58572;48.110;19.838;2023-03-25T10:02:26;96828.53;;;18.91;50.59
70921;BME280;58572;48.110;19.838;2023-03-25T10:07:58;96822.31;;;19.79;48.33
70921;BME280;58572;48.110;19.838;2023-03-25T10:10:35;96825.69;;;19.49;49.31
70921;BME280;58572;48.110;19.838;2023-03-25T10:13:09;96826.19;;;18.19;49.33
70921;BME280;58572;48.110;19.838;2023-03-25T10:15:43;96823.56;;;18.77;48.23
70921;BME280;58572;48.110;19.838;2023-03-25T10:18:33;96826.69;;;19.18;46.99
70921;BME280;58572;48.110;19.838;2023-03-25T10:21:08;96824.34;;;18.78;46.28
70921;BME280;58572;48.110;19.838;2023-03-25T10:23:41;96832.91;;;18.92;47.25
70921;BME280;58572;48.110;19.838;2023-03-25T10:26:13;96825.09;;;20.05;44.93
70921;BME280;58572;48.110;19.838;2023-03-25T10:28:48;96749.59;;;20.20;43.41
70921;BME280;58572;48.110;19.838;2023-03-25T10:31:19;96836.88;;;18.05;46.01
70921;BME280;58572;48.110;19.838;2023-03-25T10:33:52;96818.81;;;19.17;43.29
70921;BME280;58572;48.110;19.838;2023-03-25T10:36:29;96784.56;;;18.21;44.20
70921;BME280;58572;48.110;19.838;2023-03-25T10:38:58;96831.22;;;17.82;46.17
70921;BME280;58572;48.110;19.838;2023-03-25T10:41:34;96839.59;;;19.33;43.39
70921;BME280;58572;48.110;19.838;2023-03-25T10:44:07;96796.38;;;18.41;45.33
70921;BME280;58572;48.110;19.838;2023-03-25T10:46:38;96819.44;;;17.22;46.11
70921;BME280;58572;48.110;19.838;2023-03-25T10:49:13;96841.91;;;17.56;47.41
70921;BME280;58572;48.110;19.838;2023-03-25T10:51:42;96853.19;;;16.79;47.57
70921;BME280;58572;48.110;19.838;2023-03-25T10:54:11;96860.66;;;16.67;47.84
70921;BME280;58572;48.110;19.838;2023-03-25T10:56:44;96845.59;;;17.76;45.31
70921;BME280;58572;48.110;19.838;2023-03-25T10:59:18;96848.09;;;17.53;46.30
70921;BME280;58572;48.110;19.838;2023-03-25T11:01:49;96849.97;;;17.05;46.33
70921;BME280;58572;48.110;19.838;2023-03-25T11:04:20;96852.53;;;16.70;47.81
70921;BME280;58572;48.110;19.838;2023-03-25T11:06:51;96848.53;;;16.68;47.53
70921;BME280;58572;48.110;19.838;2023-03-25T11:09:24;96840.22;;;18.14;45.47
70921;BME280;58572;48.110;19.838;2023-03-25T11:11:54;96843.97;;;20.03;42.74
70921;BME280;58572;48.110;19.838;2023-03-25T11:14:23;96834.63;;;19.85;42.60
70921;BME280;58572;48.110;19.838;2023-03-25T11:16:54;96855.19;;;18.68;44.01
70921;BME280;58572;48.110;19.838;2023-03-25T11:19:25;96860.75;;;17.70;45.17
70921;BME280;58572;48.110;19.838;2023-03-25T11:21:56;96841.22;;;19.57;43.38
70921;BME280;58572;48.110;19.838;2023-03-25T11:24:30;96834.59;;;21.64;40.74
70921;BME280;58572;48.110;19.838;2023-03-25T11:27:00;96838.78;;;20.24;41.30
70921;BME280;58572;48.110;19.838;2023-03-25T11:29:28;96839.66;;;19.37;42.77
70921;BME280;58572;48.110;19.838;2023-03-25T11:32:05;96845.38;;;18.16;43.32
70921;BME280;58572;48.110;19.838;2023-03-25T11:34:34;96848.91;;;18.51;43.93
70921;BME280;58572;48.110;19.838;2023-03-25T11:37:15;96844.41;;;17.93;43.11
70921;BME280;58572;48.110;19.838;2023-03-25T11:39:48;96844.44;;;17.77;45.87
70921;BME280;58572;48.110;19.838;2023-03-25T11:42:27;96838.72;;;18.01;45.48
70921;BME280;58572;48.110;19.838;2023-03-25T11:44:58;96828.19;;;17.88;46.38
70921;BME280;58572;48.110;19.838;2023-03-25T11:47:30;96801.19;;;17.62;45.64
70921;BME280;58572;48.110;19.838;2023-03-25T11:49:57;96827.25;;;17.36;47.90
70921;BME280;58572;48.110;19.838;2023-03-25T11:52:33;96742.19;;;15.84;50.80
70921;BME280;58572;48.110;19.838;2023-03-25T11:55:04;96754.28;;;15.83;51.22
70921;BME280;58572;48.110;19.838;2023-03-25T11:57:38;96857.22;;;15.02;57.55
70921;BME280;58572;48.110;19.838;2023-03-25T12:00:19;96869.81;;;15.16;57.15
70921;BME280;58572;48.110;19.838;2023-03-25T12:02:58;96861.97;;;15.84;55.39
70921;BME280;58572;48.110;19.838;2023-03-25T12:05:25;96835.75;;;15.50;55.69
70921;BME280;58572;48.110;19.838;2023-03-25T12:08:00;96864.25;;;16.06;53.95
70921;BME280;58572;48.110;19.838;2023-03-25T12:10:37;96864.56;;;16.41;53.50
70921;BME280;58572;48.110;19.838;2023-03-25T12:13:16;96853.88;;;16.76;52.60
70921;BME280;58572;48.110;19.838;2023-03-25T12:15:52;96856.16;;;15.61;55.96
70921;BME280;58572;48.110;19.838;2023-03-25T12:18:43;96852.81;;;16.16;54.86
70921;BME280;58572;48.110;19.838;2023-03-25T12:21:25;96855.22;;;16.06;55.93
70921;BME280;58572;48.110;19.838;2023-03-25T12:24:08;96842.69;;;16.97;51.25
70921;BME280;58572;48.110;19.838;2023-03-25T12:26:45;96825.81;;;18.21;50.22
70921;BME280;58572;48.110;19.838;2023-03-25T12:29:37;96823.41;;;18.90;50.57
70921;BME280;58572;48.110;19.838;2023-03-25T12:32:22;96761.84;;;18.24;47.82
70921;BME280;58572;48.110;19.838;2023-03-25T12:35:02;96837.63;;;16.19;50.68
70921;BME280;58572;48.110;19.838;2023-03-25T12:37:34;96855.97;;;16.43;49.14
70921;BME280;58572;48.110;19.838;2023-03-25T12:40:24;96842.81;;;16.48;51.22
70921;BME280;58572;48.110;19.838;2023-03-25T12:43:02;96807.13;;;16.08;50.98
70921;BME280;58572;48.110;19.838;2023-03-25T12:45:52;96865.25;;;16.26;51.40
70921;BME280;58572;48.110;19.838;2023-03-25T12:48:33;96872.34;;;15.66;53.31
70921;BME280;58572;48.110;19.838;2023-03-25T12:51:06;96887.22;;;15.44;54.86
70921;BME280;58572;48.110;19.838;2023-03-25T12:53:46;96890.72;;;14.07;61.55
70921;BME280;58572;48.110;19.838;2023-03-25T12:56:28;96897.09;;;14.71;58.34
70921;BME280;58572;48.110;19.838;2023-03-25T12:59:18;96853.91;;;14.55;58.41
70921;BME280;58572;48.110;19.838;2023-03-25T13:02:00;96901.44;;;15.25;56.75
70921;BME280;58572;48.110;19.838;2023-03-25T13:04:50;96899.16;;;15.27;56.97
70921;BME280;58572;48.110;19.838;2023-03-25T13:07:24;96887.78;;;15.71;56.07
70921;BME280;58572;48.110;19.838;2023-03-25T13:10:02;96876.13;;;15.41;56.20
70921;BME280;58572;48.110;19.838;2023-03-25T13:12:32;96880.03;;;15.52;56.23
70921;BME280;58572;48.110;19.838;2023-03-25T13:15:04;96880.72;;;16.06;54.25
70921;BME280;58572;48.110;19.838;2023-03-25T13:17:39;96876.94;;;15.86;55.26
70921;BME280;58572;48.110;19.838;2023-03-25T13:20:09;96882.84;;;15.64;55.32